Time;durP1;ratioP1;P1;durP2;ratioP2;P2;SDS_P1;SDS_P2;PMS_P1;PMS_P2;Temp;Humidity;BMP_temperature;BMP_pressure;BME280_temperature;BME280_humidity;BME280_pressure;Samples;Min_cycle;Max_cycle;Signal;HPM_P1;HPM_P2
2022/04/12 00:00:48;;;;;;;16.23;7.50;;;;;;;4.34;65.38;101334.97;5068104;28;20044;-72
2022/04/12 00:03:14;;;;;;;13.05;7.22;;;;;;;4.43;65.61;101337.44;5067475;28;20058;-72
2022/04/12 00:05:41;;;;;;;25.05;7.80;;;;;;;4.54;65.28;101340.72;5069773;28;20052;-72
2022/04/12 00:08:09;;;;;;;18.00;8.13;;;;;;;4.24;66.36;101339.47;5069673;28;20153;-72
2022/04/12 00:10:36;;;;;;;12.25;7.43;;;;;;;4.41;66.29;101331.41;5067299;28;20037;-72
2022/04/12 00:13:03;;;;;;;13.93;7.30;;;;;;;4.38;65.63;101334.91;5068925;28;20403;-72
2022/04/12 00:15:29;;;;;;;13.95;7.40;;;;;;;4.54;64.50;101334.66;5068358;28;20071;-72
2022/04/12 00:20:43;;;;;;;13.30;7.38;;;;;;;4.54;64.33;101337.25;5068181;28;20051;-72
2022/04/12 00:23:12;;;;;;;14.40;7.88;;;;;;;4.42;64.82;101330.53;5068385;28;20052;-71
2022/04/12 00:25:39;;;;;;;16.65;7.38;;;;;;;4.52;64.53;101331.22;5068627;28;20044;-71
2022/04/12 00:28:06;;;;;;;10.73;7.18;;;;;;;4.45;64.04;101337.38;5068590;28;20044;-73
2022/04/12 00:30:33;;;;;;;11.60;7.75;;;;;;;4.35;64.53;101336.69;5068809;28;20574;-74
2022/04/12 00:32:59;;;;;;;11.65;7.03;;;;;;;4.17;65.40;101337.00;5067441;28;20519;-73
2022/04/12 00:35:26;;;;;;;11.57;6.97;;;;;;;4.23;65.41;101324.78;5081994;28;20070;-73
2022/04/12 00:37:53;;;;;;;9.75;6.68;;;;;;;4.28;65.34;101333.34;5072046;28;20411;-72
2022/04/12 00:40:24;;;;;;;15.90;7.03;;;;;;;4.47;64.76;101335.66;5063799;28;20121;-72
2022/04/12 00:42:51;;;;;;;9.90;6.70;;;;;;;4.51;64.42;101345.09;5059536;28;20036;-73
2022/04/12 00:45:18;;;;;;;12.88;7.32;;;;;;;4.25;65.10;101342.94;5067924;28;20094;-73
2022/04/12 00:47:45;;;;;;;10.40;6.70;;;;;;;4.37;64.76;101337.53;5068322;28;20434;-73
2022/04/12 00:50:13;;;;;;;11.32;7.05;;;;;;;4.39;64.02;101331.44;5067916;28;20067;-73
2022/04/12 00:52:42;;;;;;;14.35;6.85;;;;;;;4.54;63.73;101329.47;5068215;28;20044;-73
2022/04/12 00:55:09;;;;;;;11.32;7.00;;;;;;;4.70;63.17;101328.28;5068110;28;20146;-73
2022/04/12 00:57:38;;;;;;;13.40;6.88;;;;;;;4.72;63.18;101326.53;5067399;28;20049;-73
2022/04/12 01:00:07;;;;;;;16.27;7.00;;;;;;;4.77;63.37;101328.13;5067241;28;20500;-73
2022/04/12 01:02:34;;;;;;;10.30;6.50;;;;;;;4.86;63.44;101332.31;5067558;28;20523;-73
2022/04/12 01:05:01;;;;;;;9.43;6.03;;;;;;;4.83;63.82;101325.44;5070391;28;20056;-72
2022/04/12 01:07:28;;;;;;;10.05;6.43;;;;;;;4.92;63.54;101324.41;5068486;28;20512;-72
2022/04/12 01:09:54;;;;;;;12.02;6.43;;;;;;;4.95;63.39;101326.09;5067052;28;20412;-72
2022/04/12 01:12:22;;;;;;;10.45;6.82;;;;;;;5.08;63.10;101322.38;5067331;28;20044;-72
2022/04/12 01:14:50;;;;;;;14.15;6.32;;;;;;;5.03;62.90;101322.44;5067191;28;20048;-73
2022/04/12 01:17:16;;;;;;;10.45;5.70;;;;;;;4.88;62.30;101314.94;5067361;28;20056;-73
2022/04/12 01:19:43;;;;;;;9.60;5.95;;;;;;;4.83;63.21;101309.84;5066541;28;20064;-73
2022/04/12 01:22:13;;;;;;;8.55;5.90;;;;;;;4.76;62.98;101317.78;5068241;28;20062;-73
2022/04/12 01:24:42;;;;;;;13.80;6.85;;;;;;;4.47;64.10;101310.53;5063691;28;20474;-73
2022/04/12 01:27:09;;;;;;;9.70;6.15;;;;;;;4.24;64.65;101305.72;5067298;28;20557;-73
2022/04/12 01:29:37;;;;;;;10.95;5.97;;;;;;;3.93;65.92;101310.56;5067261;28;20044;-73
2022/04/12 01:32:07;;;;;;;9.25;6.25;;;;;;;4.04;65.34;101297.41;5067376;28;20060;-72
2022/04/12 01:34:34;;;;;;;12.25;5.82;;;;;;;3.96;65.86;101298.41;5067740;28;20044;-73
2022/04/12 01:37:01;;;;;;;9.82;6.20;;;;;;;3.89;65.78;101303.69;5067864;28;20478;-73
2022/04/12 01:39:28;;;;;;;10.25;6.35;;;;;;;3.84;65.89;101300.28;5065520;28;20048;-73
2022/04/12 01:41:55;;;;;;;9.68;6.00;;;;;;;3.64;66.44;101299.75;5068027;28;20037;-72
2022/04/12 01:44:22;;;;;;;14.68;6.80;;;;;;;3.78;66.52;101297.81;5068195;28;20583;-73
2022/04/12 01:46:48;;;;;;;10.30;5.82;;;;;;;3.98;65.65;101296.66;5059267;28;20489;-73
2022/04/12 01:49:16;;;;;;;9.65;5.32;;;;;;;4.08;64.48;101304.25;5066620;28;20044;-74
2022/04/12 01:51:42;;;;;;;9.88;5.78;;;;;;;3.96;64.55;101298.41;5067362;28;20044;-74
2022/04/12 01:54:09;;;;;;;9.60;6.13;;;;;;;4.03;64.66;101290.50;5066990;28;20460;-74
2022/04/12 01:56:35;;;;;;;9.73;5.72;;;;;;;4.12;64.46;101294.69;5067551;28;20497;-72
2022/04/12 01:59:04;;;;;;;11.68;6.13;;;;;;;4.19;63.94;101291.97;5072851;28;20048;-72
2022/04/12 02:01:30;;;;;;;9.48;5.75;;;;;;;4.43;63.17;101290.69;5067806;28;20051;-72
2022/04/12 02:03:57;;;;;;;8.35;5.38;;;;;;;4.06;63.96;101287.00;5066828;28;20464;-72
2022/04/12 02:06:23;;;;;;;8.55;5.75;;;;;;;4.10;64.33;101281.72;5067249;28;20056;-72
2022/04/12 02:08:50;;;;;;;10.05;6.07;;;;;;;4.22;64.40;101273.75;5066228;28;20048;-73
2022/04/12 02:11:16;;;;;;;8.00;5.63;;;;;;;4.13;64.37;101275.66;5066712;28;20052;-72
2022/04/12 02:13:42;;;;;;;10.57;5.30;;;;;;;4.21;63.74;101271.19;5067130;28;20048;-73
2022/04/12 02:16:10;;;;;;;8.02;5.32;;;;;;;4.18;63.91;101269.47;5067419;28;20048;-73
2022/04/12 02:18:36;;;;;;;12.05;5.80;;;;;;;4.25;64.00;101260.69;5067193;28;20045;-73
2022/04/12 02:21:03;;;;;;;8.95;5.75;;;;;;;4.15;64.43;101259.16;5066951;28;20045;-73
2022/04/12 02:23:29;;;;;;;11.40;5.18;;;;;;;4.19;64.29;101262.56;5066768;28;20041;-73
2022/04/12 02:25:55;;;;;;;11.88;5.88;;;;;;;4.19;64.30;101265.16;5070614;28;20067;-73
2022/04/12 02:28:22;;;;;;;7.90;4.70;;;;;;;4.18;63.56;101264.28;5071562;28;20048;-73
2022/04/12 02:30:48;;;;;;;12.80;5.60;;;;;;;4.28;63.29;101252.03;5070277;28;20463;-73
2022/04/12 02:33:16;;;;;;;7.97;5.10;;;;;;;4.30;62.76;101265.81;5071064;28;20052;-73
2022/04/12 02:35:42;;;;;;;10.05;5.43;;;;;;;4.21;63.08;101266.81;5071006;28;20094;-73
2022/04/12 02:38:09;;;;;;;10.82;5.40;;;;;;;4.11;63.99;101274.78;5071079;28;20117;-73
2022/04/12 02:40:35;;;;;;;11.68;5.38;;;;;;;4.00;64.23;101277.56;5069407;28;20075;-73
2022/04/12 02:43:01;;;;;;;8.10;4.97;;;;;;;4.07;64.36;101276.59;5070604;28;20409;-73
2022/04/12 02:45:28;;;;;;;7.63;5.20;;;;;;;4.09;64.29;101286.97;5070325;28;20052;-73
2022/04/12 02:47:54;;;;;;;8.70;5.13;;;;;;;3.98;64.15;101275.91;5071051;28;20068;-73
2022/04/12 02:50:22;;;;;;;8.73;4.93;;;;;;;4.09;63.53;101279.16;5070567;28;20389;-73
2022/04/12 02:52:49;;;;;;;9.02;5.10;;;;;;;4.11;63.42;101282.59;5070678;28;20044;-73
2022/04/12 02:55:15;;;;;;;9.30;4.80;;;;;;;4.14;63.04;101292.94;5070444;28;20402;-73
2022/04/12 02:57:41;;;;;;;7.90;4.82;;;;;;;3.97;63.61;101285.41;5070280;28;20102;-73
2022/04/12 03:00:09;;;;;;;9.57;4.78;;;;;;;3.88;64.10;101283.81;5070224;28;20086;-73
2022/04/12 03:02:36;;;;;;;9.00;5.00;;;;;;;3.81;64.50;101294.31;5070416;28;20131;-73
2022/04/12 03:05:02;;;;;;;8.43;5.28;;;;;;;3.80;64.60;101293.47;5070301;28;20092;-73
2022/04/12 03:07:31;;;;;;;8.63;4.93;;;;;;;3.97;63.84;101289.75;5070605;28;20102;-73
2022/04/12 03:09:57;;;;;;;10.90;6.05;;;;;;;4.22;63.24;101296.25;5069366;28;20044;-73
2022/04/12 03:12:23;;;;;;;8.82;5.20;;;;;;;4.25;63.00;101301.41;5070560;28;20090;-73
2022/04/12 03:14:50;;;;;;;9.25;5.32;;;;;;;4.17;63.20;101291.16;5070225;28;20040;-73
2022/04/12 03:17:16;;;;;;;9.48;5.15;;;;;;;4.32;62.11;101298.66;5070240;28;20048;-73
2022/04/12 03:19:42;;;;;;;8.18;4.97;;;;;;;4.20;62.59;101295.41;5069304;28;20074;-73
2022/04/12 03:22:09;;;;;;;7.35;5.05;;;;;;;4.22;62.21;101293.63;5070211;28;20048;-73
2022/04/12 03:24:36;;;;;;;7.82;4.90;;;;;;;4.22;62.46;101285.84;5069839;28;20092;-73
2022/04/12 03:27:03;;;;;;;10.35;5.07;;;;;;;4.29;61.96;101284.88;5050654;28;20044;-73
2022/04/12 03:29:29;;;;;;;8.02;4.82;;;;;;;4.25;62.19;101294.44;5066682;28;20048;-73
2022/04/12 03:31:56;;;;;;;11.55;4.78;;;;;;;4.27;61.58;101292.69;5070663;28;20496;-73
2022/04/12 03:34:22;;;;;;;7.65;4.75;;;;;;;4.21;61.60;101284.16;5070209;28;20070;-73
2022/04/12 03:36:48;;;;;;;7.18;4.70;;;;;;;4.14;62.03;101274.78;5069357;28;20094;-73
2022/04/12 03:39:17;;;;;;;9.07;5.10;;;;;;;4.09;62.30;101282.63;5069251;28;20048;-73
2022/04/12 03:41:45;;;;;;;9.05;5.03;;;;;;;4.12;62.12;101282.56;5069553;28;20048;-73
2022/04/12 03:44:12;;;;;;;10.05;5.15;;;;;;;4.09;62.26;101269.66;5069889;28;20044;-73
2022/04/12 03:46:38;;;;;;;13.52;5.00;;;;;;;4.11;62.38;101282.59;5069798;28;20060;-73
2022/04/12 03:49:04;;;;;;;9.75;5.10;;;;;;;4.11;62.43;101278.25;5068109;28;20516;-73
2022/04/12 03:51:31;;;;;;;9.15;5.60;;;;;;;4.12;62.58;101279.13;5070061;28;20142;-72
2022/04/12 03:53:57;;;;;;;8.55;5.30;;;;;;;4.19;61.99;101275.53;5070000;28;20048;-72
2022/04/12 03:56:24;;;;;;;8.85;5.45;;;;;;;4.12;62.63;101274.78;5068777;28;20571;-72
2022/04/12 03:58:51;;;;;;;8.68;5.32;;;;;;;4.17;62.72;101279.91;5068768;28;20524;-72
2022/04/12 04:01:18;;;;;;;9.82;5.78;;;;;;;4.16;62.89;101286.84;5069761;28;20048;-73
2022/04/12 04:03:44;;;;;;;9.82;5.60;;;;;;;4.09;63.02;101279.16;5069152;28;20094;-74
2022/04/12 04:06:11;;;;;;;9.63;5.43;;;;;;;4.17;62.70;101277.31;5069008;28;20040;-74
2022/04/12 04:08:38;;;;;;;8.15;5.53;;;;;;;4.22;62.37;101281.53;5069298;28;20048;-73
2022/04/12 04:11:04;;;;;;;9.30;5.82;;;;;;;4.16;62.35;101289.44;5066317;28;20059;-73
2022/04/12 04:13:36;;;;;;;10.40;5.95;;;;;;;4.11;62.58;101282.59;5068774;28;20102;-73
2022/04/12 04:16:04;;;;;;;7.83;4.93;;;;;;;4.24;62.25;101284.97;5069273;28;20051;-73
2022/04/12 04:18:30;;;;;;;11.85;5.72;;;;;;;4.24;62.50;101276.31;5069115;28;20044;-73
2022/04/12 04:20:56;;;;;;;12.35;6.03;;;;;;;4.02;62.98;101265.44;5068666;28;20044;-73
2022/04/12 04:23:23;;;;;;;10.18;5.85;;;;;;;4.05;63.08;101274.91;5068763;28;20041;-73
2022/04/12 04:25:49;;;;;;;8.07;4.93;;;;;;;4.09;62.65;101281.78;5068781;28;20082;-73
2022/04/12 04:28:21;;;;;;;9.93;5.93;;;;;;;4.00;62.96;101272.38;5068450;28;20451;-73
2022/04/12 04:30:49;;;;;;;8.15;5.35;;;;;;;4.11;62.62;101269.59;5066428;28;20049;-74
2022/04/12 04:33:17;;;;;;;9.75;5.38;;;;;;;3.93;62.71;101266.44;5067462;28;20056;-74
2022/04/12 04:35:44;;;;;;;9.48;5.32;;;;;;;3.89;62.68;101261.31;5068763;28;20060;-72
2022/04/12 04:38:10;;;;;;;8.77;5.25;;;;;;;4.11;61.74;101269.59;5068292;28;20404;-73
2022/04/12 04:40:37;;;;;;;8.57;5.20;;;;;;;4.35;61.19;101264.88;5067622;28;20048;-73
2022/04/12 04:43:03;;;;;;;6.97;4.50;;;;;;;4.35;61.40;101267.47;5068947;28;20044;-72
2022/04/12 04:45:30;;;;;;;9.57;4.95;;;;;;;4.63;60.36;101266.94;5068508;28;20110;-73
2022/04/12 04:47:58;;;;;;;9.80;5.28;;;;;;;4.44;60.74;101269.03;5068137;28;20045;-73
2022/04/12 04:50:27;;;;;;;8.45;5.50;;;;;;;4.59;59.89;101268.75;5067672;28;20093;-73
2022/04/12 04:52:54;;;;;;;7.88;4.85;;;;;;;4.40;60.10;101264.75;5068070;28;20552;-73
2022/04/12 04:55:21;;;;;;;11.02;4.55;;;;;;;4.75;58.93;101283.16;5067342;28;20643;-73
2022/04/12 04:57:48;;;;;;;7.03;4.90;;;;;;;5.08;57.93;101280.78;5067783;28;20451;-73
2022/04/12 05:00:16;;;;;;;7.10;4.40;;;;;;;5.22;57.29;101283.94;5067308;28;20474;-73
2022/04/12 05:02:44;;;;;;;8.48;5.00;;;;;;;5.09;57.43;101285.09;5068039;28;20048;-73
2022/04/12 05:05:11;;;;;;;9.75;4.90;;;;;;;5.42;56.54;101291.31;5068169;28;20048;-73
2022/04/12 05:07:39;;;;;;;8.73;4.97;;;;;;;5.36;56.90;101297.50;5067812;28;20055;-73
2022/04/12 05:10:07;;;;;;;11.90;5.78;;;;;;;5.51;56.62;101294.56;5066846;28;20040;-73
2022/04/12 05:12:33;;;;;;;7.43;4.32;;;;;;;5.47;56.48;101297.28;5065925;28;20561;-73
2022/04/12 05:15:00;;;;;;;8.40;4.57;;;;;;;5.42;56.82;101293.91;5068035;28;20470;-73
2022/04/12 05:17:27;;;;;;;8.32;4.63;;;;;;;5.93;55.68;101289.31;5068488;28;20067;-73
2022/04/12 05:19:56;;;;;;;8.70;4.88;;;;;;;6.29;54.44;101294.47;5066935;28;20066;-73
2022/04/12 05:22:23;;;;;;;7.38;4.85;;;;;;;6.30;54.79;101290.13;5067750;28;20439;-72
2022/04/12 05:24:51;;;;;;;8.63;5.13;;;;;;;6.73;53.66;101292.44;5067716;28;20078;-73
2022/04/12 05:27:17;;;;;;;10.05;4.53;;;;;;;6.53;53.93;101290.38;5067933;28;20048;-74
2022/04/12 05:29:44;;;;;;;8.50;5.05;;;;;;;6.85;53.27;101285.16;5066009;28;20569;-74
2022/04/12 05:32:13;;;;;;;10.00;5.47;;;;;;;7.09;53.71;101282.75;5056115;28;20048;-74
2022/04/12 05:34:39;;;;;;;7.20;4.60;;;;;;;7.51;52.52;101278.00;5059763;28;20055;-74
2022/04/12 05:37:06;;;;;;;9.77;4.60;;;;;;;7.24;52.00;101282.31;5062201;28;20440;-74
2022/04/12 05:39:32;;;;;;;7.78;5.00;;;;;;;7.54;52.29;101289.22;5065735;28;20060;-73
2022/04/12 05:42:01;;;;;;;7.07;4.57;;;;;;;7.38;52.74;101281.91;5067313;28;20044;-73
2022/04/12 05:44:28;;;;;;;9.55;4.78;;;;;;;7.46;52.91;101282.53;5067131;28;20058;-73
2022/04/12 05:46:54;;;;;;;7.22;4.60;;;;;;;7.49;51.62;101285.03;5067313;28;20119;-73
2022/04/12 05:49:21;;;;;;;6.60;4.65;;;;;;;7.89;52.07;101288.13;5065928;28;20455;-73
2022/04/12 05:51:47;;;;;;;8.60;5.47;;;;;;;8.49;50.27;101292.25;5065327;28;20052;-73
2022/04/12 05:54:14;;;;;;;7.63;5.03;;;;;;;8.50;51.40;101297.41;5059739;28;20044;-74
2022/04/12 05:56:40;;;;;;;9.88;4.75;;;;;;;9.02;50.84;101308.66;5067510;28;20048;-74
2022/04/12 05:59:08;;;;;;;15.23;5.40;;;;;;;8.94;50.56;101306.34;5066170;28;20040;-73
2022/04/12 06:01:34;;;;;;;9.27;5.20;;;;;;;8.72;51.37;101314.06;5067663;28;20044;-73
2022/04/12 06:04:01;;;;;;;8.10;5.28;;;;;;;8.17;52.04;101307.22;5066105;28;20049;-74
2022/04/12 06:06:27;;;;;;;9.15;4.93;;;;;;;8.43;52.31;101316.81;5065178;28;20106;-73
2022/04/12 06:08:54;;;;;;;6.50;4.95;;;;;;;8.24;52.37;101321.78;5066062;28;20037;-74
2022/04/12 06:11:20;;;;;;;8.00;5.20;;;;;;;8.10;53.30;101323.13;5065456;28;20558;-75
2022/04/12 06:13:47;;;;;;;6.65;4.68;;;;;;;8.82;52.63;101325.06;5065542;28;20091;-74
2022/04/12 06:16:15;;;;;;;8.15;5.30;;;;;;;9.04;51.36;101331.25;5065899;28;20053;-74
2022/04/12 06:18:41;;;;;;;8.30;5.45;;;;;;;9.60;49.61;101325.69;5066790;28;20059;-74
2022/04/12 06:21:07;;;;;;;7.30;5.13;;;;;;;9.72;49.95;101323.44;5065792;28;20113;-74
2022/04/12 06:23:34;;;;;;;7.68;4.63;;;;;;;9.88;50.30;101315.81;5065226;28;20037;-74
2022/04/12 06:26:00;;;;;;;7.15;5.22;;;;;;;9.95;50.72;101327.75;5061266;28;20045;-74
2022/04/12 06:28:27;;;;;;;10.90;5.25;;;;;;;9.68;49.73;101329.69;5067516;28;20045;-75
2022/04/12 06:30:55;;;;;;;8.88;5.00;;;;;;;10.24;50.34;101330.09;5066196;28;20548;-75
2022/04/12 06:33:22;;;;;;;9.98;5.47;;;;;;;10.16;50.91;101332.16;5054508;28;20131;-74
2022/04/12 06:35:49;;;;;;;8.00;5.15;;;;;;;10.83;51.05;101329.34;5064855;28;20046;-74
2022/04/12 06:38:15;;;;;;;11.60;5.47;;;;;;;11.13;50.22;101325.38;5066673;28;20102;-74
2022/04/12 06:40:44;;;;;;;9.55;5.72;;;;;;;11.47;49.75;101329.09;5061058;28;20066;-75
2022/04/12 06:43:11;;;;;;;8.95;5.47;;;;;;;12.10;47.46;101333.13;5063373;28;20055;-74
2022/04/12 06:45:38;;;;;;;11.25;5.22;;;;;;;11.89;47.33;101340.28;5062722;28;20045;-73
2022/04/12 06:48:05;;;;;;;10.13;5.57;;;;;;;11.70;46.06;101337.63;5054282;28;20441;-73
2022/04/12 06:50:34;;;;;;;9.18;5.65;;;;;;;12.17;45.99;101334.53;5065048;28;20496;-73
2022/04/12 06:53:03;;;;;;;7.88;4.88;;;;;;;12.74;44.07;101340.47;5066501;28;20044;-73
2022/04/12 06:55:30;;;;;;;11.70;4.65;;;;;;;12.89;44.71;101340.53;5065504;28;20515;-73
2022/04/12 06:57:56;;;;;;;7.72;5.13;;;;;;;12.47;44.31;101342.69;5061256;28;20044;-74
2022/04/12 07:00:23;;;;;;;7.35;4.85;;;;;;;11.63;46.81;101344.09;5065482;28;20036;-74
2022/04/12 07:02:49;;;;;;;8.18;5.38;;;;;;;11.06;48.09;101342.31;5065976;28;20547;-74
2022/04/12 07:05:16;;;;;;;8.75;5.68;;;;;;;11.03;47.91;101345.09;5054869;28;20113;-73
2022/04/12 07:07:44;;;;;;;7.53;5.32;;;;;;;11.13;48.88;101356.03;5066195;28;20106;-73
2022/04/12 07:10:12;;;;;;;7.15;5.40;;;;;;;11.53;46.11;101352.47;5064420;28;20299;-74
2022/04/12 07:12:40;;;;;;;9.63;5.90;;;;;;;11.01;48.25;101348.72;5064818;28;20103;-74
2022/04/12 07:15:08;;;;;;;11.40;5.88;;;;;;;12.31;46.77;101345.22;5070556;28;20040;-74
2022/04/12 07:17:34;;;;;;;8.82;5.70;;;;;;;11.96;44.67;101346.94;5067349;28;20040;-74
2022/04/12 07:20:01;;;;;;;11.15;5.60;;;;;;;11.99;46.07;101344.16;5068368;28;20102;-73
2022/04/12 07:22:28;;;;;;;7.50;5.55;;;;;;;12.09;45.83;101341.94;5070116;28;20066;-73
2022/04/12 07:24:56;;;;;;;9.98;6.07;;;;;;;11.89;47.02;101344.69;5068491;28;20049;-73
2022/04/12 07:27:22;;;;;;;9.73;5.93;;;;;;;12.26;46.57;101339.34;5065152;28;20480;-73
2022/04/12 07:29:48;;;;;;;10.30;5.32;;;;;;;13.42;43.78;101342.13;5067999;28;20040;-73
2022/04/12 07:32:15;;;;;;;8.70;6.05;;;;;;;13.43;43.65;101341.19;5068903;28;20558;-74
2022/04/12 07:34:41;;;;;;;7.75;5.43;;;;;;;13.17;43.98;101350.50;5070078;28;20071;-74
2022/04/12 07:37:08;;;;;;;10.23;5.32;;;;;;;12.87;45.80;101347.63;5069448;28;20561;-74
2022/04/12 07:39:34;;;;;;;10.25;6.13;;;;;;;12.89;45.47;101344.94;5063427;28;20048;-72
2022/04/12 07:42:02;;;;;;;8.00;5.25;;;;;;;12.74;45.06;101340.47;5069338;28;20094;-72
2022/04/12 07:44:29;;;;;;;8.45;5.57;;;;;;;12.20;46.37;101334.38;5068613;28;20056;-73
2022/04/12 07:46:55;;;;;;;13.45;6.82;;;;;;;12.24;47.42;101335.94;5069300;28;20066;-73
2022/04/12 07:49:21;;;;;;;8.43;5.07;;;;;;;12.30;46.87;101338.28;5068949;28;20040;-73
2022/04/12 07:51:48;;;;;;;9.23;5.68;;;;;;;12.07;46.88;101330.66;5068488;28;20385;-73
2022/04/12 07:54:14;;;;;;;13.95;6.65;;;;;;;11.91;48.38;101334.94;5069463;28;20063;-73
2022/04/12 07:56:41;;;;;;;9.75;5.45;;;;;;;11.87;49.59;101336.84;5068382;28;20070;-74
2022/04/12 07:59:10;;;;;;;8.63;5.18;;;;;;;12.69;46.41;101335.41;5057798;28;20465;-73
2022/04/12 08:01:36;;;;;;;8.52;4.60;;;;;;;12.64;46.74;101329.53;5063476;28;20458;-73
2022/04/12 08:04:03;;;;;;;6.70;4.57;;;;;;;12.62;45.01;101331.41;5068851;28;20044;-74
2022/04/12 08:06:30;;;;;;;7.75;4.60;;;;;;;12.00;46.51;101342.41;5068845;28;20041;-74
2022/04/12 08:08:56;;;;;;;6.22;4.50;;;;;;;11.66;47.02;101330.81;5068466;28;20128;-74
2022/04/12 08:11:23;;;;;;;9.27;4.70;;;;;;;12.19;48.12;101323.00;5068610;28;20443;-74
2022/04/12 08:13:49;;;;;;;6.63;5.18;;;;;;;12.44;47.55;101329.69;5067973;28;20459;-74
2022/04/12 08:16:17;;;;;;;7.28;4.40;;;;;;;12.40;45.99;101321.13;5067330;28;20097;-73
2022/04/12 08:18:43;;;;;;;7.45;5.30;;;;;;;12.77;46.48;101329.78;5068446;28;20381;-74
2022/04/12 08:21:09;;;;;;;6.85;5.00;;;;;;;13.07;45.89;101330.81;5068389;28;20102;-74
2022/04/12 08:23:36;;;;;;;9.48;5.32;;;;;;;13.55;45.79;101319.47;5068160;28;20094;-74
2022/04/12 08:26:02;;;;;;;8.50;4.88;;;;;;;13.93;42.75;101319.97;5065924;28;20079;-73
2022/04/12 08:28:28;;;;;;;12.52;5.05;;;;;;;13.75;42.75;101331.53;5067394;28;20044;-73
2022/04/12 08:30:55;;;;;;;6.63;4.80;;;;;;;13.42;44.02;101335.06;5066682;28;20048;-75
2022/04/12 08:33:22;;;;;;;7.38;4.78;;;;;;;13.41;43.00;101328.13;5066535;28;20056;-74
2022/04/12 08:35:49;;;;;;;8.40;4.57;;;;;;;13.60;43.26;101326.16;5067043;28;20102;-74
2022/04/12 08:38:15;;;;;;;7.20;4.63;;;;;;;13.50;43.56;101326.75;5067827;28;20509;-74
2022/04/12 08:40:42;;;;;;;7.28;4.70;;;;;;;13.56;42.84;101335.16;5067508;28;20048;-70
2022/04/12 08:43:09;;;;;;;8.60;5.30;;;;;;;13.99;41.92;101324.91;5069040;28;20098;-70
2022/04/12 08:45:37;;;;;;;9.00;4.43;;;;;;;13.91;41.06;101321.84;5069146;28;20090;-70
2022/04/12 08:48:06;;;;;;;10.02;4.82;;;;;;;14.29;40.44;101311.75;5067687;28;20044;-71
2022/04/12 08:50:35;;;;;;;11.55;5.47;;;;;;;14.06;41.33;101316.56;5068047;28;20086;-70
2022/04/12 08:53:02;;;;;;;8.82;4.40;;;;;;;14.24;38.36;101314.63;5068192;28;20558;-70
2022/04/12 08:55:28;;;;;;;7.40;4.68;;;;;;;13.63;39.39;101322.53;5068912;28;20416;-71
2022/04/12 08:57:55;;;;;;;9.25;4.30;;;;;;;14.08;39.18;101324.34;5066341;28;20074;-70
2022/04/12 09:00:21;;;;;;;9.90;5.45;;;;;;;13.78;40.75;101334.00;5068399;28;20052;-70
2022/04/12 09:02:57;;;;;;;8.25;5.13;;;;;;;13.75;40.57;101324.47;5068113;28;20066;-70
2022/04/12 09:05:24;;;;;;;9.48;5.55;;;;;;;13.93;41.68;101314.72;5049001;28;20045;-70
2022/04/12 09:07:51;;;;;;;9.73;4.80;;;;;;;14.71;39.98;101308.41;5068155;28;20129;-70
2022/04/12 09:10:19;;;;;;;8.93;5.03;;;;;;;14.57;40.15;101312.72;5067357;28;20110;-70
2022/04/12 09:12:46;;;;;;;8.00;4.93;;;;;;;15.22;39.14;101331.66;5064809;28;20062;-70
2022/04/12 09:15:15;;;;;;;7.00;4.70;;;;;;;14.84;39.54;101304.94;5067581;28;20040;-70
2022/04/12 09:17:44;;;;;;;6.35;4.80;;;;;;;15.45;39.80;101301.13;5068352;28;20115;-70
2022/04/12 09:20:12;;;;;;;9.55;5.10;;;;;;;15.69;38.92;101309.34;5067402;28;20123;-70
2022/04/12 09:22:39;;;;;;;7.40;4.75;;;;;;;14.82;38.79;101309.44;5067889;28;20544;-70
2022/04/12 09:25:10;;;;;;;8.30;4.88;;;;;;;15.15;39.30;101314.47;5068539;28;20095;-70
2022/04/12 09:27:38;;;;;;;6.55;4.80;;;;;;;15.59;37.71;101317.84;5067977;28;20667;-70
2022/04/12 09:30:08;;;;;;;7.53;3.95;;;;;;;15.56;37.38;101323.34;5060229;28;20048;-71
2022/04/12 09:32:38;;;;;;;8.13;4.82;;;;;;;16.16;36.63;101312.41;5068307;28;20052;-70
2022/04/12 09:35:05;;;;;;;7.65;4.70;;;;;;;16.85;36.96;101321.91;5067230;28;20052;-70
2022/04/12 09:37:33;;;;;;;10.65;5.05;;;;;;;15.81;34.98;101316.50;5068303;28;20113;-71
2022/04/12 09:40:09;;;;;;;7.43;4.55;;;;;;;15.80;35.66;101320.94;5067606;28;20040;-70
2022/04/12 09:42:54;;;;;;;10.07;5.15;;;;;;;16.06;35.58;101312.19;5067587;28;20121;-70
2022/04/12 09:45:23;;;;;;;5.95;4.10;;;;;;;15.91;35.75;101299.09;5067354;28;20036;-70
2022/04/12 09:47:51;;;;;;;7.90;5.05;;;;;;;15.64;34.75;101298.22;5067390;28;20075;-70
2022/04/12 09:50:20;;;;;;;7.20;4.47;;;;;;;15.79;35.30;101311.31;5066709;28;20048;-70
2022/04/12 09:52:53;;;;;;;5.82;3.97;;;;;;;16.37;35.91;101295.09;5067218;28;20121;-71
2022/04/12 09:55:35;;;;;;;6.10;4.20;;;;;;;15.62;35.42;101298.34;5067597;28;20052;-70
2022/04/12 09:58:03;;;;;;;5.63;4.00;;;;;;;15.73;34.80;101279.97;5067965;28;20032;-70
2022/04/12 10:00:30;;;;;;;6.40;3.92;;;;;;;16.15;34.98;101286.88;5067880;28;20459;-70
2022/04/12 10:02:59;;;;;;;7.80;3.67;;;;;;;16.28;34.90;101284.28;5067882;28;20046;-70
2022/04/12 10:05:25;;;;;;;5.60;3.75;;;;;;;16.61;34.65;101286.50;5067167;28;20064;-70
2022/04/12 10:07:52;;;;;;;7.10;3.92;;;;;;;16.18;34.41;101286.72;5067005;28;20504;-70
2022/04/12 10:10:19;;;;;;;10.00;4.93;;;;;;;16.36;34.73;101282.84;5066825;28;20098;-70
2022/04/12 10:12:47;;;;;;;6.80;4.13;;;;;;;16.22;35.83;101288.19;5067208;28;20049;-71
2022/04/12 10:15:14;;;;;;;8.45;4.95;;;;;;;17.06;39.03;101288.63;5067574;28;20093;-71
2022/04/12 10:17:41;;;;;;;8.25;4.82;;;;;;;18.54;39.18;101281.31;5065922;28;20097;-71
2022/04/12 10:20:10;;;;;;;7.05;4.10;;;;;;;18.25;32.78;101288.81;5066053;28;20492;-71
2022/04/12 10:22:37;;;;;;;6.78;4.55;;;;;;;18.27;30.95;101287.72;5066582;28;20110;-71
2022/04/12 10:25:04;;;;;;;6.35;4.57;;;;;;;18.04;32.65;101290.38;5067249;28;20044;-71
2022/04/12 10:27:32;;;;;;;6.00;4.15;;;;;;;17.84;33.51;101274.16;5067483;28;20040;-71
2022/04/12 10:30:26;;;;;;;6.65;4.40;;;;;;;18.04;35.93;101275.31;5067152;28;20041;-71
2022/04/12 10:33:00;;;;;;;9.80;4.03;;;;;;;18.25;32.25;101272.88;5066485;28;20052;-72
2022/04/12 10:35:26;;;;;;;6.72;4.60;;;;;;;18.38;34.25;101265.66;5066380;28;20050;-71
2022/04/12 10:37:56;;;;;;;7.82;4.05;;;;;;;19.14;32.59;101259.78;5067298;28;20136;-71
2022/04/12 10:40:24;;;;;;;7.93;4.25;;;;;;;18.98;32.48;101259.28;5066116;28;20056;-71
2022/04/12 10:42:50;;;;;;;6.80;3.67;;;;;;;18.36;30.43;101247.22;5066458;28;20505;-71
2022/04/12 10:45:30;;;;;;;6.68;4.00;;;;;;;18.23;32.42;101256.22;5068401;28;20053;-71
2022/04/12 10:47:57;;;;;;;6.45;4.13;;;;;;;18.09;32.35;101254.59;5069593;28;20051;-71
2022/04/12 10:50:24;;;;;;;7.20;4.05;;;;;;;18.27;31.84;101253.22;5070529;28;20052;-71
2022/04/12 10:52:50;;;;;;;8.18;4.35;;;;;;;17.89;33.80;101247.25;5071038;28;20044;-71
2022/04/12 10:55:18;;;;;;;15.63;4.90;;;;;;;18.18;32.53;101256.53;5070685;28;20049;-71
2022/04/12 10:57:46;;;;;;;10.05;4.30;;;;;;;18.64;33.25;101256.59;5071023;28;20093;-71
2022/04/12 11:00:14;;;;;;;6.80;4.38;;;;;;;18.36;32.42;101241.06;5070509;28;20053;-71
2022/04/12 11:02:44;;;;;;;6.40;4.15;;;;;;;18.00;32.42;101249.97;5070902;28;20102;-71
2022/04/12 11:05:43;;;;;;;5.15;3.83;;;;;;;18.48;32.23;101240.94;5070788;28;20037;-71
2022/04/12 11:08:40;;;;;;;6.45;4.32;;;;;;;17.64;32.30;101234.97;5070282;28;20106;-71
2022/04/12 11:11:10;;;;;;;6.03;3.90;;;;;;;17.68;32.25;101241.75;5064473;28;20401;-70
2022/04/12 11:13:37;;;;;;;8.20;4.57;;;;;;;18.04;31.39;101238.16;5070200;28;20123;-70
2022/04/12 11:16:08;;;;;;;10.40;4.60;;;;;;;18.16;32.27;101233.75;5070586;28;20044;-70
2022/04/12 11:18:48;;;;;;;8.77;4.80;;;;;;;18.66;33.50;101230.75;5068978;28;20562;-70
2022/04/12 11:21:16;;;;;;;6.68;4.25;;;;;;;18.80;31.66;101227.03;5069873;28;20106;-70
2022/04/12 11:23:47;;;;;;;7.05;4.43;;;;;;;19.25;31.11;101219.91;5069975;28;20044;-70
2022/04/12 11:26:37;;;;;;;9.52;5.28;;;;;;;19.65;30.16;101206.88;5070233;28;20129;-70
2022/04/12 11:29:08;;;;;;;7.28;4.82;;;;;;;19.90;29.85;101204.72;5069768;28;20045;-70
2022/04/12 11:31:36;;;;;;;6.85;4.40;;;;;;;18.80;30.80;101217.25;5070322;28;20128;-70